Time;durP1;ratioP1;P1;durP2;ratioP2;P2;SDS_P1;SDS_P2;PMS_P1;PMS_P2;Temp;Humidity;BMP_temperature;BMP_pressure;BME280_temperature;BME280_humidity;BME280_pressure;Samples;Min_cycle;Max_cycle;Signal;HPM_P1;HPM_P2
2021/04/20 00:00:44;;;;;;;116.75;51.65;;;8.40;92.30;;;;;;5029281;28;20466;-70
2021/04/20 00:03:10;;;;;;;104.55;51.05;;;8.30;92.40;;;;;;5023359;28;20787;-69
2021/04/20 00:05:36;;;;;;;112.03;51.60;;;8.20;92.30;;;;;;5021950;28;20368;-69
2021/04/20 00:08:04;;;;;;;105.57;50.15;;;8.20;92.50;;;;;;5047220;28;20029;-70
2021/04/20 00:10:32;;;;;;;132.20;53.22;;;8.10;92.50;;;;;;5035433;28;20024;-70
2021/04/20 00:12:57;;;;;;;83.43;45.13;;;8.00;92.50;;;;;;5044677;28;20036;-70
2021/04/20 00:15:29;;;;;;;103.57;48.85;;;8.10;92.80;;;;;;5024996;28;20021;-69
2021/04/20 00:17:56;;;;;;;130.55;52.50;;;8.00;92.50;;;;;;5036294;28;20104;-69
2021/04/20 00:20:23;;;;;;;119.32;49.20;;;8.00;92.50;;;;;;5048398;28;20041;-68
2021/04/20 00:22:49;;;;;;;104.57;48.17;;;7.90;92.50;;;;;;5037904;28;20078;-70
2021/04/20 00:25:16;;;;;;;112.40;49.35;;;8.00;92.60;;;;;;5042418;28;20047;-69
2021/04/20 00:27:41;;;;;;;101.95;46.85;;;7.90;92.60;;;;;;5036505;28;20487;-70
2021/04/20 00:30:08;;;;;;;118.40;49.97;;;7.80;92.50;;;;;;5048436;28;20110;-70
2021/04/20 00:32:34;;;;;;;128.20;51.20;;;7.80;92.50;;;;;;5035965;28;20092;-70
2021/04/20 00:35:02;;;;;;;133.18;51.45;;;7.80;92.70;;;;;;5025943;28;20447;-69
2021/04/20 00:37:27;;;;;;;103.53;49.40;;;7.80;92.70;;;;;;5024432;28;20037;-69
2021/04/20 00:39:53;;;;;;;103.60;47.67;;;7.90;92.90;;;;;;5036651;28;20028;-69
2021/04/20 00:42:19;;;;;;;119.20;51.83;;;8.00;92.90;;;;;;5030100;28;20106;-70
2021/04/20 00:44:49;;;;;;;124.93;52.35;;;8.00;92.90;;;;;;5036840;28;20048;-70
2021/04/20 00:47:15;;;;;;;98.32;47.67;;;8.00;92.70;;;;;;5023172;28;20117;-69
2021/04/20 00:49:40;;;;;;;96.10;48.17;;;7.90;92.60;;;;;;5044696;28;20101;-71
2021/04/20 00:52:07;;;;;;;115.88;51.00;;;8.00;92.60;;;;;;5034646;28;20028;-70
2021/04/20 00:54:33;;;;;;;106.15;47.70;;;7.90;92.40;;;;;;5047649;28;20100;-70
2021/04/20 00:56:58;;;;;;;133.57;51.20;;;7.80;92.50;;;;;;5036994;28;20092;-71
2021/04/20 00:59:24;;;;;;;109.10;50.50;;;7.70;92.20;;;;;;5042284;28;20425;-70
2021/04/20 01:01:50;;;;;;;118.32;50.88;;;7.60;92.20;;;;;;5036479;28;20095;-70
2021/04/20 01:04:19;;;;;;;114.85;49.75;;;7.60;92.10;;;;;;5029904;28;20028;-70
2021/04/20 01:06:46;;;;;;;125.30;51.30;;;7.60;92.30;;;;;;5017813;28;20655;-70
2021/04/20 01:09:15;;;;;;;134.38;53.85;;;7.50;92.30;;;;;;5041818;28;20030;-70
2021/04/20 01:11:42;;;;;;;124.35;52.88;;;7.50;92.30;;;;;;5044901;28;20517;-70
2021/04/20 01:14:08;;;;;;;124.82;52.85;;;7.50;92.50;;;;;;5033754;28;20033;-70
2021/04/20 01:16:35;;;;;;;125.82;53.53;;;7.50;92.60;;;;;;5045246;28;20018;-69
2021/04/20 01:19:02;;;;;;;143.60;54.53;;;7.60;92.60;;;;;;5019941;28;20021;-69
2021/04/20 01:21:28;;;;;;;146.70;54.13;;;7.60;92.70;;;;;;5020924;28;20030;-70
2021/04/20 01:24:08;;;;;;;137.65;53.72;;;7.70;92.80;;;;;;5027158;28;20023;-70
2021/04/20 01:26:36;;;;;;;127.65;51.03;;;7.70;92.70;;;;;;5017617;28;20025;-70
2021/04/20 01:29:03;;;;;;;124.22;49.08;;;7.60;92.70;;;;;;5038606;28;20164;-69
2021/04/20 01:31:34;;;;;;;109.38;46.13;;;7.60;92.70;;;;;;5038487;28;20026;-70
2021/04/20 01:34:00;;;;;;;102.95;44.65;;;7.60;92.70;;;;;;5046006;28;20155;-70
2021/04/20 01:36:27;;;;;;;106.28;44.95;;;7.50;92.60;;;;;;5033004;28;20061;-70
2021/04/20 01:38:54;;;;;;;122.90;48.92;;;7.40;92.40;;;;;;5043507;28;20107;-71
2021/04/20 01:41:21;;;;;;;130.93;48.97;;;7.30;92.40;;;;;;5040306;28;20072;-70
2021/04/20 01:43:47;;;;;;;112.47;48.70;;;7.30;92.60;;;;;;5036263;28;20057;-70
2021/04/20 01:46:14;;;;;;;133.75;49.05;;;7.30;92.70;;;;;;5021181;28;20026;-69
2021/04/20 01:48:40;;;;;;;115.60;49.33;;;7.30;92.60;;;;;;5045362;28;20022;-70
2021/04/20 01:51:06;;;;;;;165.63;53.72;;;7.30;92.60;;;;;;5041539;28;20020;-70
2021/04/20 01:53:32;;;;;;;151.50;53.25;;;7.30;92.70;;;;;;5041512;28;20025;-70
2021/04/20 01:56:03;;;;;;;171.57;54.28;;;7.30;92.80;;;;;;5048745;28;20033;-69
2021/04/20 01:58:30;;;;;;;123.05;49.00;;;7.30;92.90;;;;;;5036523;28;20040;-70
2021/04/20 02:00:57;;;;;;;134.32;51.15;;;7.30;92.80;;;;;;5046008;28;20021;-70
2021/04/20 02:03:24;;;;;;;128.23;50.53;;;7.40;92.90;;;;;;5026048;28;20033;-70
2021/04/20 02:05:50;;;;;;;112.47;51.80;;;7.30;92.80;;;;;;5020942;28;20056;-69
2021/04/20 02:08:17;;;;;;;127.53;55.10;;;7.30;92.80;;;;;;5031061;28;20017;-71
2021/04/20 02:10:43;;;;;;;146.38;56.47;;;7.40;92.80;;;;;;5038195;28;20051;-72
2021/04/20 02:13:09;;;;;;;143.30;55.58;;;7.40;92.80;;;;;;5008106;28;554113;-70
2021/04/20 02:15:35;;;;;;;145.95;56.22;;;7.50;92.50;;;;;;5028918;28;20025;-70
2021/04/20 02:18:01;;;;;;;168.80;63.08;;;7.40;92.60;;;;;;5037526;28;20029;-71
2021/04/20 02:20:28;;;;;;;165.63;63.00;;;7.50;92.60;;;;;;5050784;28;20022;-70
2021/04/20 02:22:55;;;;;;;132.30;57.38;;;7.60;92.70;;;;;;5040723;28;20052;-68
2021/04/20 02:25:21;;;;;;;174.18;66.60;;;7.60;92.60;;;;;;5043510;28;20101;-69
2021/04/20 02:27:50;;;;;;;172.98;63.97;;;7.70;92.60;;;;;;5038472;28;20080;-68
2021/04/20 02:30:17;;;;;;;158.25;64.95;;;7.80;92.70;;;;;;5050258;28;20021;-67
2021/04/20 02:32:43;;;;;;;158.40;60.67;;;7.80;92.70;;;;;;5039063;28;20024;-69
2021/04/20 02:35:12;;;;;;;180.48;64.65;;;7.80;92.60;;;;;;5027224;28;20029;-69
2021/04/20 02:37:39;;;;;;;156.00;65.88;;;8.00;92.80;;;;;;5045794;28;20083;-69
2021/04/20 02:40:06;;;;;;;150.48;62.80;;;8.00;92.80;;;;;;5037159;28;20052;-69
2021/04/20 02:42:34;;;;;;;162.40;62.53;;;8.00;92.80;;;;;;5021295;28;20104;-69
2021/04/20 02:45:00;;;;;;;151.07;59.67;;;8.10;92.70;;;;;;5046100;28;20382;-69
2021/04/20 02:47:28;;;;;;;139.32;60.20;;;8.00;92.50;;;;;;5044098;28;20060;-69
2021/04/20 02:49:54;;;;;;;143.35;60.40;;;8.00;92.20;;;;;;5038615;28;20501;-69
2021/04/20 02:52:21;;;;;;;138.43;58.08;;;8.00;92.50;;;;;;5031953;28;20033;-69
2021/04/20 02:54:46;;;;;;;150.63;60.17;;;8.00;92.30;;;;;;5021413;28;20638;-69
2021/04/20 02:57:13;;;;;;;152.57;61.83;;;8.00;92.30;;;;;;5043485;28;20095;-69
2021/04/20 02:59:40;;;;;;;140.52;60.10;;;8.00;92.50;;;;;;5028662;28;20032;-69
2021/04/20 03:02:07;;;;;;;141.35;58.63;;;7.90;91.90;;;;;;5035492;28;20097;-69
2021/04/20 03:04:34;;;;;;;155.65;61.17;;;8.00;92.40;;;;;;5049605;28;20017;-70
2021/04/20 03:07:00;;;;;;;155.57;61.88;;;8.00;92.40;;;;;;5039652;28;20522;-69
2021/04/20 03:09:25;;;;;;;124.45;57.35;;;8.10;92.60;;;;;;5042353;28;20024;-68
2021/04/20 03:11:56;;;;;;;153.38;62.17;;;8.10;92.70;;;;;;5047704;28;20031;-70
2021/04/20 03:14:22;;;;;;;135.77;58.50;;;8.00;92.30;;;;;;5036537;28;20040;-69
2021/04/20 03:16:48;;;;;;;171.85;77.40;;;8.10;92.40;;;;;;5028746;28;20035;-70
2021/04/20 03:19:14;;;;;;;139.85;62.20;;;8.10;92.50;;;;;;5024715;28;20025;-69
2021/04/20 03:21:41;;;;;;;121.30;56.30;;;8.10;92.30;;;;;;5039954;28;20084;-70
2021/04/20 03:24:16;;;;;;;152.35;61.47;;;8.10;92.00;;;;;;5031641;28;20062;-70
2021/04/20 03:26:42;;;;;;;161.80;60.10;;;8.10;92.40;;;;;;5037209;28;20077;-70
2021/04/20 03:29:09;;;;;;;155.38;62.38;;;8.20;92.60;;;;;;5041382;28;20063;-68
2021/04/20 03:31:41;;;;;;;848.50;453.40;;;8.20;92.70;;;;;;5040440;28;20018;-70
2021/04/20 03:34:20;;;;;;;148.52;62.25;;;8.30;92.80;;;;;;5048913;28;20029;-69
2021/04/20 03:36:56;;;;;;;150.48;61.60;;;8.20;92.50;;;;;;5037674;28;20075;-69
2021/04/20 03:39:25;;;;;;;141.93;60.72;;;8.30;92.50;;;;;;5008031;28;20060;-69
2021/04/20 03:42:13;;;;;;;154.45;61.47;;;8.30;92.50;;;;;;5046900;28;20032;-69
2021/04/20 03:44:46;;;;;;;164.90;64.00;;;8.40;92.60;;;;;;5021439;28;20041;-69
2021/04/20 03:47:41;;;;;;;154.55;62.65;;;8.40;92.80;;;;;;5042549;28;20029;-69
2021/04/20 03:50:12;;;;;;;151.82;62.38;;;8.40;92.70;;;;;;5028946;28;20029;-69
2021/04/20 03:52:47;;;;;;;155.37;63.33;;;8.40;92.50;;;;;;5036890;28;20025;-70
2021/04/20 03:55:17;;;;;;;129.90;60.03;;;8.30;92.20;;;;;;5025003;28;20055;-70
2021/04/20 03:57:45;;;;;;;116.10;58.08;;;8.40;92.10;;;;;;5038309;28;20045;-70
2021/04/20 04:00:15;;;;;;;114.32;57.10;;;8.40;92.20;;;;;;5030601;28;20029;-69
2021/04/20 04:02:44;;;;;;;120.43;56.95;;;8.40;92.00;;;;;;5037095;28;20495;-70
2021/04/20 04:05:15;;;;;;;129.13;59.10;;;8.50;92.10;;;;;;5043158;28;20830;-69
2021/04/20 04:07:42;;;;;;;112.72;56.40;;;8.40;91.60;;;;;;5026783;28;20048;-70
2021/04/20 04:10:09;;;;;;;107.28;54.47;;;8.40;91.50;;;;;;5018760;28;20034;-70
2021/04/20 04:12:39;;;;;;;118.97;57.78;;;8.40;91.50;;;;;;5053021;28;20116;-70
2021/04/20 04:15:09;;;;;;;122.97;57.42;;;8.40;91.50;;;;;;5057365;28;20077;-68
2021/04/20 04:17:42;;;;;;;120.83;57.83;;;8.40;91.10;;;;;;5053341;28;20033;-69
2021/04/20 04:20:11;;;;;;;103.20;55.60;;;8.40;91.10;;;;;;5031004;28;20033;-69
2021/04/20 04:22:42;;;;;;;105.03;54.67;;;8.30;90.30;;;;;;5036227;28;20017;-69
2021/04/20 04:25:12;;;;;;;111.22;58.65;;;8.40;90.60;;;;;;5025406;28;20036;-70
2021/04/20 04:27:42;;;;;;;103.57;57.20;;;8.40;90.70;;;;;;5018709;28;20380;-70
2021/04/20 04:30:10;;;;;;;100.55;54.88;;;8.40;90.90;;;;;;5030143;28;20021;-70
2021/04/20 04:32:39;;;;;;;98.93;53.83;;;8.50;90.50;;;;;;5035678;28;20083;-69
2021/04/20 04:35:06;;;;;;;99.45;55.58;;;8.50;90.50;;;;;;5043126;28;20446;-70
2021/04/20 04:37:35;;;;;;;95.18;56.15;;;8.50;90.10;;;;;;5024719;28;20512;-70
2021/04/20 04:40:06;;;;;;;91.22;52.63;;;8.50;90.40;;;;;;5035530;28;20033;-72
2021/04/20 04:42:32;;;;;;;107.38;57.80;;;8.60;90.10;;;;;;5001282;28;20041;-71
2021/04/20 04:45:02;;;;;;;102.57;57.13;;;8.60;89.70;;;;;;5043849;28;20136;-70
2021/04/20 04:47:28;;;;;;;91.90;54.00;;;8.50;89.80;;;;;;5042033;28;20041;-71
2021/04/20 04:50:00;;;;;;;105.20;57.83;;;8.70;89.70;;;;;;5036415;28;20044;-70
2021/04/20 04:52:26;;;;;;;;;;;8.70;89.90;;;;;;5030286;28;20395;-70
2021/04/20 04:54:54;;;;;;;91.15;51.00;;;8.80;89.80;;;;;;5037381;28;19908;-70
2021/04/20 04:57:21;;;;;;;106.05;57.22;;;8.90;90.00;;;;;;5040060;28;20029;-69
2021/04/20 04:59:48;;;;;;;107.40;58.35;;;8.90;89.80;;;;;;5045284;28;20052;-71
2021/04/20 05:02:14;;;;;;;90.25;52.85;;;8.90;89.60;;;;;;5016874;28;20503;-69
2021/04/20 05:04:40;;;;;;;94.50;51.95;;;9.00;89.70;;;;;;5028493;28;20033;-71
2021/04/20 05:07:05;;;;;;;79.82;50.85;;;9.00;89.40;;;;;;5020457;28;20017;-70
2021/04/20 05:09:31;;;;;;;89.25;54.08;;;9.00;89.00;;;;;;5018275;28;20033;-70
2021/04/20 05:11:57;;;;;;;97.32;55.25;;;9.10;89.20;;;;;;5041413;28;20029;-69
2021/04/20 05:14:23;;;;;;;89.75;52.95;;;9.20;89.30;;;;;;5034766;28;20074;-70
2021/04/20 05:16:51;;;;;;;89.30;52.58;;;9.20;88.50;;;;;;5026079;28;20119;-71
2021/04/20 05:19:33;;;;;;;87.90;53.47;;;9.20;88.70;;;;;;5040715;28;20491;-70
2021/04/20 05:22:00;;;;;;;85.93;51.05;;;9.40;89.00;;;;;;5000660;28;20410;-70
2021/04/20 05:24:27;;;;;;;90.00;53.75;;;9.40;88.70;;;;;;5046384;28;20044;-70
2021/04/20 05:26:55;;;;;;;80.82;50.55;;;9.50;88.50;;;;;;5035271;28;20052;-69
2021/04/20 05:29:21;;;;;;;92.28;54.90;;;9.40;88.20;;;;;;5040605;28;20029;-69
2021/04/20 05:31:48;;;;;;;98.45;56.58;;;9.50;88.90;;;;;;5000689;28;20519;-70
2021/04/20 05:34:14;;;;;;;87.22;52.85;;;9.60;89.80;;;;;;5027765;28;20029;-70
2021/04/20 05:36:40;;;;;;;79.82;50.65;;;9.80;89.50;;;;;;5033417;28;20044;-70
2021/04/20 05:39:08;;;;;;;80.50;50.83;;;9.70;87.50;;;;;;5040668;28;20056;-71
2021/04/20 05:41:36;;;;;;;79.82;51.70;;;9.80;88.10;;;;;;5041955;28;20108;-71
2021/04/20 05:44:04;;;;;;;73.75;49.15;;;10.00;88.00;;;;;;5034130;28;20029;-69
2021/04/20 05:46:30;;;;;;;76.07;49.50;;;10.00;87.10;;;;;;5046383;28;20404;-70
2021/04/20 05:48:56;;;;;;;72.68;48.88;;;10.30;88.10;;;;;;5037358;28;20025;-70
2021/04/20 05:51:23;;;;;;;76.80;49.58;;;10.30;86.20;;;;;;5021852;28;20073;-69
2021/04/20 05:53:51;;;;;;;68.25;46.50;;;10.40;86.40;;;;;;5030429;28;20096;-69
2021/04/20 05:56:19;;;;;;;70.97;46.40;;;10.50;86.00;;;;;;5016994;28;20037;-69
2021/04/20 05:58:45;;;;;;;70.57;46.53;;;10.60;83.90;;;;;;5029983;28;20091;-70
2021/04/20 06:01:12;;;;;;;71.25;47.60;;;;;;;;;;5030179;28;20026;-69
2021/04/20 06:03:41;;;;;;;69.72;46.78;;;11.00;83.70;;;;;;5040631;28;20102;-71
2021/04/20 06:06:14;;;;;;;66.78;45.45;;;11.40;82.70;;;;;;5027662;28;20029;-68
2021/04/20 06:08:40;;;;;;;67.00;44.38;;;11.80;81.50;;;;;;5033183;28;20155;-69
2021/04/20 06:11:08;;;;;;;66.47;45.72;;;12.30;79.40;;;;;;5038458;28;20025;-70
2021/04/20 06:13:36;;;;;;;70.82;45.45;;;12.70;77.40;;;;;;5028952;28;20131;-70
2021/04/20 06:16:02;;;;;;;67.38;45.33;;;12.60;76.80;;;;;;5045702;28;20443;-68
2021/04/20 06:18:30;;;;;;;68.90;44.72;;;12.70;75.40;;;;;;5046910;28;20057;-69
2021/04/20 06:20:58;;;;;;;61.30;43.13;;;12.90;76.50;;;;;;5019469;28;20564;-68
2021/04/20 06:23:24;;;;;;;62.08;43.75;;;13.20;75.70;;;;;;5039437;28;20037;-69
2021/04/20 06:25:57;;;;;;;60.63;42.45;;;13.40;73.60;;;;;;5026754;28;20529;-69
2021/04/20 06:28:24;;;;;;;78.65;55.80;;;13.70;72.60;;;;;;5015591;28;20137;-72
2021/04/20 06:30:50;;;;;;;78.80;53.53;;;13.50;71.80;;;;;;5040572;28;20139;-68
2021/04/20 06:33:16;;;;;;;61.72;43.80;;;13.70;71.80;;;;;;5022432;28;20468;-71
2021/04/20 06:35:42;;;;;;;62.28;45.00;;;13.80;70.30;;;;;;5044732;28;20032;-71
2021/04/20 06:38:12;;;;;;;94.03;56.78;;;13.80;70.10;;;;;;5036340;28;20088;-70
2021/04/20 06:40:47;;;;;;;66.13;46.23;;;14.00;70.50;;;;;;5031792;28;20029;-71
2021/04/20 06:43:14;;;;;;;67.30;44.92;;;14.00;70.30;;;;;;5043021;28;20401;-70
2021/04/20 06:45:52;;;;;;;65.90;44.60;;;13.80;69.40;;;;;;5040245;28;20025;-69
2021/04/20 06:48:38;;;;;;;56.17;40.13;;;13.90;69.80;;;;;;5049489;28;20116;-71
2021/04/20 06:51:09;;;;;;;55.20;39.42;;;14.20;68.00;;;;;;5041408;28;20053;-71
2021/04/20 06:53:39;;;;;;;83.17;54.50;;;14.50;67.30;;;;;;5024112;28;20044;-70
2021/04/20 06:56:18;;;;;;;58.80;41.97;;;14.50;69.70;;;;;;5033428;28;20701;-70
2021/04/20 06:58:50;;;;;;;62.22;41.63;;;14.70;66.00;;;;;;5034223;28;20029;-70
2021/04/20 07:01:29;;;;;;;74.82;45.05;;;15.00;66.20;;;;;;5033709;28;20060;-71
2021/04/20 07:04:38;;;;;;;55.38;40.25;;;15.50;65.40;;;;;;5015836;28;20463;-71
2021/04/20 07:07:27;;;;;;;49.70;36.38;;;16.10;62.20;;;;;;5015386;28;20483;-71
2021/04/20 07:10:14;;;;;;;61.60;41.78;;;18.00;58.00;;;;;;5016082;28;20022;-72
2021/04/20 07:12:42;;;;;;;40.75;32.83;;;19.80;51.40;;;;;;5034706;28;20029;-71
2021/04/20 07:15:12;;;;;;;51.55;37.50;;;21.10;47.80;;;;;;5044628;28;20071;-70
2021/04/20 07:18:12;;;;;;;40.72;33.20;;;21.80;45.40;;;;;;4998610;28;20156;-69
2021/04/20 07:21:10;;;;;;;43.35;33.75;;;22.50;42.40;;;;;;5017094;28;20060;-70
2021/04/20 07:23:58;;;;;;;42.03;32.58;;;22.50;42.00;;;;;;4971914;28;20522;-73
2021/04/20 07:26:52;;;;;;;45.22;35.47;;;21.60;43.80;;;;;;5034119;28;20033;-71
2021/04/20 07:29:42;;;;;;;44.72;35.55;;;20.60;45.80;;;;;;5031199;28;20022;-70
2021/04/20 07:33:05;;;;;;;45.28;35.53;;;19.90;48.30;;;;;;5028562;28;20041;-68
2021/04/20 07:35:46;;;;;;;43.72;35.67;;;19.70;49.20;;;;;;4969336;28;20039;-68
2021/04/20 07:38:32;;;;;;;37.08;31.58;;;19.10;51.40;;;;;;4952229;29;20035;-69
2021/04/20 07:41:20;;;;;;;38.45;30.50;;;18.70;50.80;;;;;;5005706;28;20423;-68
2021/04/20 07:44:11;;;;;;;42.30;33.75;;;18.60;52.30;;;;;;5033001;28;20025;-69
2021/04/20 07:46:50;;;;;;;38.00;31.08;;;18.20;52.10;;;;;;5026472;28;20026;-70
2021/04/20 07:49:30;;;;;;;40.33;33.15;;;18.40;51.80;;;;;;5030487;28;20032;-70
2021/04/20 07:52:05;;;;;;;40.90;32.92;;;18.60;52.50;;;;;;5015019;28;20052;-70
2021/04/20 07:54:53;;;;;;;42.85;33.83;;;19.00;51.80;;;;;;5033274;28;20476;-70
2021/04/20 07:57:27;;;;;;;44.95;35.00;;;18.70;52.30;;;;;;5031711;28;20029;-70
2021/04/20 07:59:52;;;;;;;51.65;36.55;;;18.50;51.10;;;;;;5015238;28;20396;-71
2021/04/20 08:02:39;;;;;;;48.58;36.85;;;18.10;52.40;;;;;;5031250;28;20026;-70
2021/04/20 08:05:27;;;;;;;48.17;37.13;;;17.80;53.20;;;;;;5012911;28;20029;-71
2021/04/20 08:07:53;;;;;;;47.92;38.10;;;17.20;54.30;;;;;;5029662;28;20108;-71
2021/04/20 08:10:22;;;;;;;51.95;38.40;;;16.40;57.00;;;;;;5030478;28;20486;-71
2021/04/20 08:12:54;;;;;;;47.92;35.13;;;16.20;57.70;;;;;;5012597;28;20414;-71
2021/04/20 08:15:49;;;;;;;45.40;33.97;;;16.90;57.10;;;;;;5012474;28;20093;-71
2021/04/20 08:18:27;;;;;;;44.78;34.13;;;18.30;53.00;;;;;;4992743;28;20033;-71
2021/04/20 08:21:07;;;;;;;46.40;34.30;;;19.00;51.50;;;;;;4994262;28;20073;-71
2021/04/20 08:23:42;;;;;;;42.28;34.13;;;18.80;51.30;;;;;;5012156;28;20030;-70
2021/04/20 08:26:18;;;;;;;42.28;32.50;;;19.20;49.40;;;;;;5010952;28;20119;-69
2021/04/20 08:29:05;;;;;;;39.90;31.60;;;19.50;49.00;;;;;;5051911;28;20021;-70
2021/04/20 08:31:42;;;;;;;34.80;28.85;;;20.60;47.60;;;;;;5051972;28;20025;-71
2021/04/20 08:34:35;;;;;;;38.17;30.08;;;21.50;45.20;;;;;;5051814;28;20025;-71
2021/04/20 08:37:00;;;;;;;35.22;28.65;;;22.10;42.70;;;;;;5051268;28;20025;-70
2021/04/20 08:39:35;;;;;;;37.95;30.75;;;21.40;43.40;;;;;;5051898;28;20031;-71
2021/04/20 08:42:25;;;;;;;35.42;29.83;;;20.40;44.90;;;;;;5051410;28;20036;-69
2021/04/20 08:45:04;;;;;;;36.70;27.83;;;20.00;46.30;;;;;;5051780;28;20029;-70
2021/04/20 08:47:52;;;;;;;36.55;28.77;;;20.40;47.30;;;;;;5045455;28;20021;-71
2021/04/20 08:50:23;;;;;;;33.90;27.67;;;21.00;43.60;;;;;;5014200;28;20033;-70
2021/04/20 08:52:51;;;;;;;33.67;27.15;;;21.60;43.50;;;;;;5031452;28;20415;-71
2021/04/20 08:55:38;;;;;;;30.25;25.33;;;21.50;42.90;;;;;;5031475;28;20029;-71
2021/04/20 08:58:28;;;;;;;34.80;27.95;;;21.90;41.70;;;;;;5030787;28;20026;-70
2021/04/20 09:01:08;;;;;;;29.52;25.70;;;21.20;43.50;;;;;;5031361;28;20034;-71
2021/04/20 09:03:56;;;;;;;33.55;27.17;;;21.90;42.60;;;;;;5031915;28;20079;-72
2021/04/20 09:06:32;;;;;;;35.72;26.60;;;22.00;42.20;;;;;;5028527;28;20087;-71
2021/04/20 09:09:09;;;;;;;33.10;26.58;;;22.00;42.90;;;;;;5024788;28;20021;-71
2021/04/20 09:12:05;;;;;;;30.52;23.70;;;22.40;41.30;;;;;;5043026;28;20022;-71
2021/04/20 09:14:38;;;;;;;28.95;23.30;;;23.30;40.70;;;;;;5029002;28;20025;-72
2021/04/20 09:17:22;;;;;;;31.42;22.70;;;24.00;40.30;;;;;;5030761;28;20518;-72
2021/04/20 09:19:54;;;;;;;29.10;22.65;;;24.60;37.20;;;;;;5031561;28;20087;-70
2021/04/20 09:22:48;;;;;;;28.75;23.83;;;24.50;36.90;;;;;;5031486;28;20391;-71
2021/04/20 09:25:50;;;;;;;30.60;25.85;;;23.90;37.50;;;;;;5013627;28;20048;-70
2021/04/20 09:28:20;;;;;;;27.50;23.35;;;23.70;38.10;;;;;;5012823;28;20026;-71
2021/04/20 09:30:53;;;;;;;30.67;22.13;;;24.20;37.10;;;;;;5031387;28;20049;-71
2021/04/20 09:33:27;;;;;;;28.33;23.48;;;24.50;36.90;;;;;;5031518;28;20456;-71
2021/04/20 09:36:01;;;;;;;32.58;23.98;;;23.40;37.50;;;;;;5031292;28;20017;-71
2021/04/20 09:38:27;;;;;;;30.40;24.85;;;23.40;39.40;;;;;;5031159;28;20033;-73
2021/04/20 09:40:53;;;;;;;30.80;23.70;;;22.70;38.80;;;;;;5031053;28;20104;-71
2021/04/20 09:43:51;;;;;;;30.05;23.75;;;21.50;42.20;;;;;;5031266;28;20029;-72
2021/04/20 09:46:44;;;;;;;30.83;24.80;;;21.20;42.60;;;;;;5027087;28;20060;-71
2021/04/20 09:49:38;;;;;;;32.08;24.08;;;20.50;43.30;;;;;;5013338;28;20022;-72
2021/04/20 09:52:16;;;;;;;30.70;24.58;;;19.80;45.50;;;;;;5031166;28;20444;-69
2021/04/20 09:54:54;;;;;;;30.20;22.73;;;19.10;47.80;;;;;;5013156;28;20480;-71
2021/04/20 09:57:29;;;;;;;29.45;22.27;;;18.80;46.90;;;;;;5012111;28;20025;-71
2021/04/20 10:00:05;;;;;;;30.15;21.95;;;18.60;47.90;;;;;;5032982;28;20025;-71
2021/04/20 10:02:52;;;;;;;28.10;21.02;;;19.40;47.10;;;;;;5008484;28;20048;-71
2021/04/20 10:05:40;;;;;;;23.38;18.60;;;19.80;44.50;;;;;;5011416;28;20051;-71
2021/04/20 10:08:17;;;;;;;26.48;21.42;;;20.30;44.70;;;;;;5012670;28;20018;-71
2021/04/20 10:11:14;;;;;;;32.38;22.15;;;20.70;42.40;;;;;;5032468;28;20437;-71
2021/04/20 10:13:58;;;;;;;26.13;20.00;;;20.20;43.70;;;;;;5034633;28;20041;-72
2021/04/20 10:16:57;;;;;;;28.45;21.83;;;20.00;46.20;;;;;;5033960;28;20029;-71
2021/04/20 10:19:44;;;;;;;25.13;20.20;;;20.10;44.90;;;;;;5034756;28;20091;-72
2021/04/20 10:22:35;;;;;;;27.17;21.80;;;20.10;44.20;;;;;;5034918;28;20029;-70
2021/04/20 10:25:14;;;;;;;35.03;22.40;;;19.90;45.70;;;;;;5034946;28;20029;-70
2021/04/20 10:27:45;;;;;;;28.73;21.70;;;20.10;46.30;;;;;;5021640;28;20479;-72
2021/04/20 10:30:17;;;;;;;32.78;23.95;;;20.10;44.40;;;;;;5016897;28;20181;-71
2021/04/20 10:32:55;;;;;;;32.58;24.10;;;19.70;45.80;;;;;;5034182;28;20052;-72
2021/04/20 10:35:31;;;;;;;27.48;21.27;;;19.80;48.70;;;;;;5034555;28;20021;-71
2021/04/20 10:38:12;;;;;;;32.22;23.75;;;19.70;46.50;;;;;;5033743;28;20045;-71
2021/04/20 10:40:41;;;;;;;29.95;22.45;;;19.60;47.00;;;;;;5033834;28;20099;-73
2021/04/20 10:43:11;;;;;;;34.55;26.15;;;19.40;46.80;;;;;;5016334;28;20030;-70
2021/04/20 10:45:41;;;;;;;34.15;26.58;;;18.70;48.70;;;;;;5016275;28;20555;-71
2021/04/20 10:48:11;;;;;;;31.52;25.33;;;17.60;52.20;;;;;;4999579;28;20033;-71
2021/04/20 10:50:41;;;;;;;34.70;25.35;;;17.60;52.90;;;;;;5034161;28;20029;-68
2021/04/20 10:53:25;;;;;;;37.70;24.52;;;17.60;53.40;;;;;;5033861;28;20025;-71
2021/04/20 10:56:02;;;;;;;30.95;24.08;;;17.70;51.20;;;;;;5034021;28;20071;-71
2021/04/20 10:58:31;;;;;;;29.52;23.35;;;17.40;52.50;;;;;;5033631;28;20025;-71
2021/04/20 11:01:08;;;;;;;25.85;20.83;;;17.50;52.80;;;;;;5033239;28;20117;-71
2021/04/20 11:03:36;;;;;;;30.77;22.65;;;17.60;50.00;;;;;;5033795;28;20152;-71
2021/04/20 11:06:07;;;;;;;31.90;22.23;;;17.70;53.70;;;;;;5015422;28;20026;-70
2021/04/20 11:08:38;;;;;;;28.80;21.35;;;17.80;50.20;;;;;;5015920;28;20021;-68
2021/04/20 11:11:07;;;;;;;24.35;20.08;;;17.40;51.40;;;;;;5033607;28;20022;-71
2021/04/20 11:13:39;;;;;;;25.33;21.05;;;17.40;51.20;;;;;;5033729;28;20083;-71
2021/04/20 11:16:11;;;;;;;30.30;22.63;;;17.30;50.90;;;;;;5032540;28;20105;-70
2021/04/20 11:18:39;;;;;;;31.60;22.88;;;17.00;54.00;;;;;;5015712;28;20028;-70
2021/04/20 11:21:10;;;;;;;31.17;24.20;;;17.40;54.00;;;;;;5032582;28;20037;-71
2021/04/20 11:23:49;;;;;;;35.08;25.30;;;17.70;52.60;;;;;;5030817;28;20033;-68
2021/04/20 11:26:17;;;;;;;30.40;23.73;;;17.70;51.30;;;;;;5012844;28;20091;-68
2021/04/20 11:28:46;;;;;;;27.83;21.95;;;17.50;52.90;;;;;;5031907;28;20025;-69
2021/04/20 11:31:18;;;;;;;27.60;20.23;;;17.70;53.60;;;;;;5015276;28;20068;-70
2021/04/20 11:33:47;;;;;;;31.38;22.63;;;17.80;50.80;;;;;;5033294;28;20503;-69
2021/04/20 11:36:22;;;;;;;30.27;22.67;;;18.20;50.90;;;;;;5014725;28;20041;-70
2021/04/20 11:38:55;;;;;;;30.70;23.67;;;18.00;51.70;;;;;;5032804;28;20025;-70
2021/04/20 11:41:38;;;;;;;28.77;23.48;;;17.90;51.90;;;;;;5033111;28;20083;-71
2021/04/20 11:44:27;;;;;;;29.95;22.25;;;17.50;52.70;;;;;;5015250;28;20025;-70
2021/04/20 11:46:53;;;;;;;26.40;21.67;;;17.50;54.40;;;;;;5032237;28;20491;-70
2021/04/20 11:49:28;;;;;;;28.17;22.05;;;17.70;53.00;;;;;;5032535;28;20109;-71
2021/04/20 11:51:59;;;;;;;27.23;21.95;;;17.70;52.70;;;;;;5032738;28;20017;-70
2021/04/20 11:54:32;;;;;;;28.38;21.20;;;17.70;53.40;;;;;;5032964;28;20089;-71
2021/04/20 11:57:00;;;;;;;29.50;22.70;;;17.90;52.40;;;;;;5031791;28;20387;-68
2021/04/20 11:59:28;;;;;;;31.23;23.35;;;18.00;53.40;;;;;;5032189;28;20033;-70
2021/04/20 12:01:55;;;;;;;30.13;21.65;;;17.90;51.70;;;;;;5032117;28;20025;-71
2021/04/20 12:04:39;;;;;;;32.15;22.98;;;17.50;51.50;;;;;;5032389;28;20407;-70
2021/04/20 12:07:11;;;;;;;32.78;24.23;;;17.50;52.60;;;;;;5014195;28;20034;-71
2021/04/20 12:09:39;;;;;;;29.00;21.98;;;17.70;51.90;;;;;;5032442;28;20048;-70
2021/04/20 12:12:06;;;;;;;30.88;21.90;;;18.00;51.50;;;;;;5011145;28;20026;-72
2021/04/20 12:14:39;;;;;;;27.20;21.48;;;18.30;50.90;;;;;;5012458;28;20034;-71
2021/04/20 12:17:05;;;;;;;35.80;24.48;;;18.70;49.00;;;;;;4994001;28;20077;-69
2021/04/20 12:19:35;;;;;;;33.65;25.45;;;19.00;48.40;;;;;;4995061;28;20037;-71
2021/04/20 12:22:02;;;;;;;31.67;24.73;;;19.00;49.60;;;;;;5006922;28;20525;-71
2021/04/20 12:24:29;;;;;;;31.77;25.10;;;18.80;49.50;;;;;;5031991;28;20116;-71
2021/04/20 12:26:57;;;;;;;33.45;24.85;;;18.60;49.60;;;;;;5030776;28;20036;-69
2021/04/20 12:29:30;;;;;;;31.52;26.55;;;18.40;49.30;;;;;;5032391;28;20372;-68
2021/04/20 12:31:56;;;;;;;31.80;24.65;;;18.00;51.30;;;;;;5029703;28;20032;-68
2021/04/20 12:34:29;;;;;;;29.67;25.40;;;17.80;51.90;;;;;;5012155;28;20101;-71
2021/04/20 12:37:02;;;;;;;28.70;24.60;;;17.60;51.50;;;;;;5011242;28;20033;-71
2021/04/20 12:39:31;;;;;;;29.75;24.25;;;17.20;53.60;;;;;;5012801;28;20112;-69
2021/04/20 12:42:01;;;;;;;33.45;25.98;;;17.40;53.90;;;;;;4994973;28;20053;-72
2021/04/20 12:44:48;;;;;;;32.38;24.50;;;17.70;53.20;;;;;;4979514;28;20030;-71
2021/04/20 12:47:16;;;;;;;29.17;24.20;;;17.70;52.40;;;;;;5011702;28;20022;-71
2021/04/20 12:49:52;;;;;;;29.65;23.45;;;17.70;52.40;;;;;;5012686;28;20032;-72
2021/04/20 12:52:23;;;;;;;32.40;24.25;;;17.60;51.70;;;;;;5013320;28;20115;-71
2021/04/20 12:54:57;;;;;;;31.77;24.45;;;17.70;51.40;;;;;;5013369;28;20022;-71